Time;durP1;ratioP1;P1;durP2;ratioP2;P2;SDS_P1;SDS_P2;PMS_P1;PMS_P2;Temp;Humidity;BMP_temperature;BMP_pressure;BME280_temperature;BME280_humidity;BME280_pressure;Samples;Min_cycle;Max_cycle;Signal;HPM_P1;HPM_P2
2022/08/04 00:01:44;;;;;;;4.97;4.17;;;29.90;56.10;;;;;;5023172;28;20449;-79
2022/08/04 00:04:21;;;;;;;6.13;4.57;;;29.90;56.10;;;;;;5026197;28;20412;-78
2022/08/04 00:06:49;;;;;;;4.70;4.13;;;29.90;56.30;;;;;;5022652;28;20474;-77
2022/08/04 00:09:41;;;;;;;5.00;4.10;;;29.80;56.30;;;;;;5027834;28;20424;-78
2022/08/04 00:12:11;;;;;;;4.10;3.80;;;29.80;56.30;;;;;;5021906;28;20435;-78
2022/08/04 00:14:45;;;;;;;6.30;4.40;;;29.80;56.40;;;;;;5026701;28;20438;-77
2022/08/04 00:17:10;;;;;;;4.37;3.97;;;29.80;56.90;;;;;;5020875;28;20847;-77
2022/08/04 00:19:46;;;;;;;4.20;3.90;;;29.80;56.90;;;;;;5023279;28;20461;-77
2022/08/04 00:22:16;;;;;;;5.37;3.87;;;29.80;56.90;;;;;;5020407;28;20199;-77
2022/08/04 00:24:43;;;;;;;6.03;4.33;;;29.70;56.90;;;;;;5025255;28;20502;-78
2022/08/04 00:27:10;;;;;;;4.90;4.40;;;29.70;56.90;;;;;;5023454;28;20453;-78
2022/08/04 00:29:38;;;;;;;4.83;4.37;;;29.70;57.20;;;;;;5031414;28;20526;-77
2022/08/04 00:32:06;;;;;;;4.97;4.47;;;29.60;57.10;;;;;;5022196;28;20894;-77
2022/08/04 00:34:33;;;;;;;4.87;4.50;;;29.60;57.00;;;;;;5020337;28;20421;-77
2022/08/04 00:36:59;;;;;;;4.20;3.83;;;29.60;57.10;;;;;;5023773;28;20444;-77
2022/08/04 00:39:26;;;;;;;4.53;4.13;;;29.60;57.00;;;;;;5017872;28;20448;-77
2022/08/04 00:42:19;;;;;;;7.40;3.93;;;29.60;56.90;;;;;;5022462;28;20263;-77
2022/08/04 00:45:01;;;;;;;4.83;4.43;;;29.50;56.90;;;;;;5019802;28;20502;-77
2022/08/04 00:48:01;;;;;;;4.07;3.77;;;29.50;56.70;;;;;;5025274;28;20419;-78
2022/08/04 00:50:38;;;;;;;7.20;4.10;;;29.50;56.90;;;;;;5022167;28;20434;-77
2022/08/04 00:53:26;;;;;;;5.03;4.60;;;29.40;56.90;;;;;;5024122;28;20427;-77
2022/08/04 00:56:04;;;;;;;4.47;4.00;;;29.40;56.80;;;;;;5028904;28;20451;-76
2022/08/04 00:58:50;;;;;;;4.43;4.00;;;29.40;57.10;;;;;;5017905;28;21271;-77
2022/08/04 01:01:41;;;;;;;4.40;3.93;;;29.40;56.90;;;;;;5023586;28;20884;-77
2022/08/04 01:04:25;;;;;;;4.70;4.33;;;29.30;56.90;;;;;;5021381;28;20434;-77
2022/08/04 01:07:12;;;;;;;4.90;3.57;;;29.30;56.80;;;;;;5023075;28;20433;-77
2022/08/04 01:10:01;;;;;;;4.30;4.00;;;29.30;56.90;;;;;;5022892;28;20994;-78
2022/08/04 01:12:41;;;;;;;4.40;4.00;;;29.30;56.90;;;;;;5020187;28;20479;-78
2022/08/04 01:15:22;;;;;;;4.33;4.03;;;29.20;57.00;;;;;;5025600;28;20957;-77
2022/08/04 01:18:11;;;;;;;4.27;3.87;;;29.20;57.00;;;;;;5022974;28;20450;-77
2022/08/04 01:20:47;;;;;;;4.77;3.87;;;29.10;57.30;;;;;;5024397;28;20434;-77
2022/08/04 01:23:24;;;;;;;7.33;4.00;;;29.20;57.30;;;;;;5024039;28;22137;-77
2022/08/04 01:25:56;;;;;;;5.33;3.60;;;29.20;57.40;;;;;;5040953;28;20481;-78
2022/08/04 01:28:33;;;;;;;4.03;3.73;;;29.10;57.60;;;;;;5024935;28;20406;-78
2022/08/04 01:31:23;;;;;;;6.10;4.07;;;29.10;57.80;;;;;;5022967;28;20455;-78
2022/08/04 01:33:51;;;;;;;12.53;4.03;;;29.10;57.90;;;;;;5022124;28;20446;-77
2022/08/04 01:36:21;;;;;;;4.90;4.50;;;29.00;57.90;;;;;;5022020;28;20973;-77
2022/08/04 01:38:47;;;;;;;4.90;3.77;;;29.00;57.90;;;;;;5022864;28;20450;-77
2022/08/04 01:41:14;;;;;;;5.13;4.30;;;29.00;58.00;;;;;;5027848;28;20798;-78
2022/08/04 01:43:42;;;;;;;4.73;4.33;;;28.90;58.20;;;;;;5023242;28;20485;-77
2022/08/04 01:46:11;;;;;;;4.83;4.40;;;28.90;58.60;;;;;;5023566;28;21212;-78
2022/08/04 01:48:43;;;;;;;7.37;4.20;;;28.90;59.00;;;;;;5021217;28;20442;-79
2022/08/04 01:51:09;;;;;;;6.40;4.07;;;28.80;59.50;;;;;;5025304;28;20450;-78
2022/08/04 01:53:37;;;;;;;5.53;4.67;;;28.70;60.00;;;;;;5026853;28;20973;-77
2022/08/04 01:56:05;;;;;;;4.87;4.47;;;28.60;60.80;;;;;;5031504;28;20838;-78
2022/08/04 01:58:32;;;;;;;5.60;4.80;;;28.50;61.10;;;;;;5031414;28;20525;-77
2022/08/04 02:01:09;;;;;;;5.60;4.40;;;28.50;61.80;;;;;;5029375;28;20538;-77
2022/08/04 02:03:38;;;;;;;12.70;5.10;;;28.40;62.00;;;;;;5034370;28;20455;-78
2022/08/04 02:06:17;;;;;;;4.20;3.90;;;28.40;62.40;;;;;;5032853;28;20533;-77
2022/08/04 02:09:05;;;;;;;4.93;4.43;;;28.40;62.40;;;;;;5029150;28;20739;-77
2022/08/04 02:11:31;;;;;;;4.73;4.33;;;28.40;62.60;;;;;;5027544;28;20518;-79
2022/08/04 02:13:59;;;;;;;6.30;4.23;;;28.40;62.80;;;;;;5039430;28;20548;-79
2022/08/04 02:16:45;;;;;;;5.10;4.67;;;28.30;62.70;;;;;;5028430;28;20459;-78
2022/08/04 02:19:32;;;;;;;4.73;4.33;;;28.40;62.70;;;;;;5027456;28;20435;-77
2022/08/04 02:22:16;;;;;;;4.50;4.13;;;28.30;62.40;;;;;;5024633;28;20423;-78
2022/08/04 02:24:47;;;;;;;5.07;4.50;;;28.30;62.60;;;;;;5025198;28;20750;-77
2022/08/04 02:27:14;;;;;;;4.40;4.00;;;28.30;62.70;;;;;;5024783;28;20494;-77
2022/08/04 02:29:53;;;;;;;4.70;4.40;;;28.20;63.60;;;;;;5024474;28;20491;-77
2022/08/04 02:32:38;;;;;;;4.90;4.20;;;28.20;64.10;;;;;;5024064;28;20450;-77
2022/08/04 02:35:08;;;;;;;7.00;4.20;;;28.20;64.00;;;;;;5020071;28;20518;-77
2022/08/04 02:37:34;;;;;;;5.57;4.60;;;28.20;64.40;;;;;;5026232;28;20462;-78
2022/08/04 02:40:08;;;;;;;5.33;4.90;;;28.20;64.60;;;;;;5024967;28;20494;-78
2022/08/04 02:42:34;;;;;;;5.63;5.13;;;28.20;64.90;;;;;;5025052;28;20999;-77
2022/08/04 02:45:00;;;;;;;5.60;5.10;;;28.10;65.20;;;;;;5021134;28;20514;-76
2022/08/04 02:47:28;;;;;;;5.17;4.70;;;28.10;65.10;;;;;;5019026;28;20459;-77
2022/08/04 02:49:55;;;;;;;7.30;4.70;;;28.00;65.50;;;;;;5018733;28;20442;-77
2022/08/04 02:52:23;;;;;;;4.60;4.20;;;28.00;65.50;;;;;;5020360;28;20465;-77
2022/08/04 02:54:53;;;;;;;6.00;5.50;;;28.00;65.60;;;;;;5016181;28;20454;-77
2022/08/04 02:57:23;;;;;;;5.97;4.83;;;28.00;65.80;;;;;;5019241;28;20458;-77
2022/08/04 03:00:14;;;;;;;5.00;4.60;;;27.90;65.50;;;;;;5023014;28;20443;-77
2022/08/04 03:02:50;;;;;;;4.97;4.57;;;27.80;65.20;;;;;;5023936;28;20520;-77
2022/08/04 03:05:24;;;;;;;4.87;4.47;;;27.90;65.20;;;;;;5022402;28;20427;-77
2022/08/04 03:08:24;;;;;;;4.57;4.17;;;27.80;65.20;;;;;;5023123;28;20464;-78
2022/08/04 03:10:56;;;;;;;4.93;4.53;;;27.80;65.00;;;;;;5022786;28;20439;-78
2022/08/04 03:13:44;;;;;;;4.33;4.03;;;27.80;65.00;;;;;;5022504;28;20434;-78
2022/08/04 03:16:34;;;;;;;5.23;4.73;;;27.70;65.00;;;;;;5022331;28;20466;-78
2022/08/04 03:19:12;;;;;;;6.13;4.87;;;27.70;65.10;;;;;;5022693;28;20474;-78
2022/08/04 03:22:03;;;;;;;5.00;4.60;;;27.70;65.30;;;;;;5027560;28;20900;-78
2022/08/04 03:25:03;;;;;;;6.20;4.97;;;27.70;65.50;;;;;;5020380;28;20471;-78
2022/08/04 03:28:02;;;;;;;5.37;4.87;;;27.60;65.70;;;;;;5024163;28;20459;-84
2022/08/04 03:30:52;;;;;;;6.13;5.10;;;27.60;66.10;;;;;;5034715;28;20535;-78
2022/08/04 03:33:45;;;;;;;5.70;5.20;;;27.50;66.30;;;;;;5021707;28;20427;-78
2022/08/04 03:36:10;;;;;;;5.30;4.90;;;27.50;66.60;;;;;;5022088;28;20448;-78
2022/08/04 03:38:55;;;;;;;5.63;5.20;;;27.50;67.00;;;;;;5030155;28;20435;-78
2022/08/04 03:41:38;;;;;;;6.30;4.40;;;27.50;67.20;;;;;;5020422;28;20811;-78
2022/08/04 03:44:37;;;;;;;5.00;4.60;;;27.50;67.70;;;;;;5026029;28;21158;-78
2022/08/04 03:47:40;;;;;;;5.30;4.80;;;27.40;68.00;;;;;;5031880;28;20447;-78
2022/08/04 03:50:24;;;;;;;6.13;5.53;;;27.40;68.20;;;;;;5034005;28;20505;-78
2022/08/04 03:53:28;;;;;;;5.87;5.27;;;27.40;68.40;;;;;;5015027;28;20465;-78
2022/08/04 03:56:08;;;;;;;6.30;5.73;;;27.30;68.40;;;;;;5020631;28;20465;-77
2022/08/04 03:58:52;;;;;;;5.70;5.20;;;27.40;68.50;;;;;;5027224;28;20510;-78
2022/08/04 04:01:43;;;;;;;5.63;5.10;;;27.30;68.40;;;;;;5022579;28;20536;-78
2022/08/04 04:04:15;;;;;;;6.60;4.80;;;27.30;68.80;;;;;;5035360;28;20557;-77
2022/08/04 04:07:05;;;;;;;4.70;4.30;;;27.30;68.80;;;;;;5025119;28;20528;-79
2022/08/04 04:09:58;;;;;;;5.40;4.90;;;27.30;68.80;;;;;;5022115;28;20443;-79
2022/08/04 04:13:01;;;;;;;5.37;4.87;;;27.20;68.90;;;;;;5020188;28;20488;-79
2022/08/04 04:16:20;;;;;;;6.00;4.60;;;27.20;68.80;;;;;;5019134;28;20426;-79
2022/08/04 04:19:07;;;;;;;6.10;4.53;;;27.20;69.20;;;;;;4976449;28;20476;-79
2022/08/04 04:21:50;;;;;;;6.67;4.53;;;27.20;69.60;;;;;;5016928;28;20428;-79
2022/08/04 04:24:27;;;;;;;5.53;5.00;;;27.10;69.90;;;;;;5022583;28;20501;-79
2022/08/04 04:27:08;;;;;;;5.00;4.50;;;27.10;69.90;;;;;;5023443;28;20463;-79
2022/08/04 04:30:03;;;;;;;5.53;4.80;;;27.00;70.00;;;;;;5021297;28;20442;-79
2022/08/04 04:32:32;;;;;;;6.60;6.00;;;27.00;70.30;;;;;;5024124;28;20431;-79
2022/08/04 04:35:48;;;;;;;4.67;4.27;;;27.00;70.20;;;;;;5026015;28;20419;-79
2022/08/04 04:38:30;;;;;;;5.20;4.60;;;27.00;70.40;;;;;;4994227;28;20495;-80
2022/08/04 04:40:59;;;;;;;5.90;4.50;;;27.00;70.70;;;;;;5027576;28;20474;-80
2022/08/04 04:43:37;;;;;;;5.10;4.60;;;26.90;70.60;;;;;;5027357;28;20466;-79
2022/08/04 04:46:06;;;;;;;4.80;4.40;;;26.90;70.70;;;;;;5025699;28;20465;-80
2022/08/04 04:48:52;;;;;;;5.47;4.87;;;26.90;71.40;;;;;;5028140;28;20451;-80
2022/08/04 04:51:36;;;;;;;9.13;4.70;;;26.90;71.10;;;;;;5023291;28;20439;-79
2022/08/04 04:54:17;;;;;;;5.07;4.50;;;26.80;71.40;;;;;;5027411;28;20514;-79
2022/08/04 04:57:08;;;;;;;11.40;5.23;;;26.70;71.50;;;;;;5030512;28;20459;-79
2022/08/04 04:59:40;;;;;;;5.00;4.60;;;26.70;71.60;;;;;;5026653;28;20420;-80
2022/08/04 05:02:35;;;;;;;7.20;5.70;;;26.70;71.60;;;;;;5029658;28;21098;-79
2022/08/04 05:05:28;;;;;;;6.13;5.53;;;26.70;71.80;;;;;;5033677;28;20574;-79
2022/08/04 05:08:06;;;;;;;5.73;5.17;;;26.70;71.60;;;;;;5030606;28;20456;-78
2022/08/04 05:10:48;;;;;;;8.43;6.30;;;26.70;72.10;;;;;;5024218;28;20475;-78
2022/08/04 05:13:23;;;;;;;6.67;5.97;;;26.70;72.90;;;;;;5024830;28;20427;-78
2022/08/04 05:15:52;;;;;;;8.50;6.10;;;26.60;73.50;;;;;;5024624;28;20449;-78
2022/08/04 05:18:25;;;;;;;6.90;5.73;;;26.60;74.00;;;;;;5023191;28;20420;-80
2022/08/04 05:20:57;;;;;;;7.73;7.00;;;26.60;74.50;;;;;;5024414;28;20443;-79
2022/08/04 05:23:27;;;;;;;7.33;6.00;;;26.60;74.90;;;;;;5021388;28;21395;-79
2022/08/04 05:25:58;;;;;;;6.37;5.77;;;26.70;75.00;;;;;;5023427;28;20862;-78
2022/08/04 05:28:32;;;;;;;6.30;5.77;;;26.60;76.10;;;;;;5019623;28;20438;-78
2022/08/04 05:31:09;;;;;;;7.37;5.60;;;26.70;76.00;;;;;;5025529;28;20487;-79
2022/08/04 05:34:03;;;;;;;9.07;5.93;;;26.70;75.70;;;;;;5025309;28;20442;-79
2022/08/04 05:36:51;;;;;;;6.03;5.53;;;26.70;75.80;;;;;;5027226;28;20439;-79
2022/08/04 05:39:21;;;;;;;6.50;5.97;;;26.70;76.20;;;;;;5017046;28;20442;-79
2022/08/04 05:41:49;;;;;;;5.77;5.27;;;26.70;76.10;;;;;;5025765;28;20451;-79
2022/08/04 05:44:17;;;;;;;7.60;5.33;;;26.80;75.20;;;;;;5025374;28;20503;-79
2022/08/04 05:46:46;;;;;;;6.10;5.50;;;26.80;75.20;;;;;;5024253;28;20450;-79
2022/08/04 05:49:13;;;;;;;6.40;5.83;;;26.80;75.10;;;;;;5029989;28;20845;-79
2022/08/04 05:51:40;;;;;;;8.77;5.87;;;26.70;75.00;;;;;;5029968;28;20913;-80
2022/08/04 05:54:07;;;;;;;6.00;5.40;;;26.70;74.70;;;;;;5026079;28;20443;-79
2022/08/04 05:56:34;;;;;;;5.80;5.30;;;26.80;75.30;;;;;;5025073;28;20474;-79
2022/08/04 05:59:03;;;;;;;6.47;5.97;;;26.80;75.30;;;;;;5023300;28;20438;-79
2022/08/04 06:01:30;;;;;;;6.40;5.43;;;26.90;75.50;;;;;;5027225;28;20436;-79
2022/08/04 06:03:58;;;;;;;6.10;5.50;;;26.90;73.30;;;;;;5038674;28;20962;-79
2022/08/04 06:06:25;;;;;;;5.60;5.10;;;26.80;73.30;;;;;;5025784;28;20501;-79
2022/08/04 06:08:51;;;;;;;5.40;5.00;;;26.90;73.30;;;;;;5026511;28;20443;-79
2022/08/04 06:11:19;;;;;;;6.73;5.20;;;26.90;73.10;;;;;;5024169;28;20416;-79
2022/08/04 06:13:52;;;;;;;5.97;5.37;;;26.90;73.20;;;;;;5029349;28;21079;-79
2022/08/04 06:16:22;;;;;;;7.27;6.00;;;26.80;73.20;;;;;;5024487;28;20455;-78
2022/08/04 06:18:52;;;;;;;7.40;5.20;;;26.80;73.60;;;;;;5025572;28;20445;-78
2022/08/04 06:21:23;;;;;;;6.47;5.87;;;26.80;75.10;;;;;;5021356;28;20411;-78
2022/08/04 06:23:51;;;;;;;7.80;7.03;;;26.70;74.50;;;;;;5022221;28;20470;-78
2022/08/04 06:26:18;;;;;;;6.63;6.03;;;26.60;75.10;;;;;;5022166;28;20462;-78
2022/08/04 06:28:50;;;;;;;7.03;6.43;;;26.70;74.80;;;;;;5024966;28;20514;-78
2022/08/04 06:31:41;;;;;;;9.87;6.93;;;26.70;75.00;;;;;;5013044;28;20555;-79
2022/08/04 06:34:07;;;;;;;8.63;6.63;;;26.70;74.90;;;;;;5024958;28;20443;-78
2022/08/04 06:36:37;;;;;;;10.00;6.70;;;26.80;74.90;;;;;;5032644;28;20470;-78
2022/08/04 06:39:04;;;;;;;6.83;6.13;;;26.80;74.60;;;;;;5026161;28;20442;-78
2022/08/04 06:41:31;;;;;;;7.20;6.07;;;26.90;74.70;;;;;;5027059;28;20462;-79
2022/08/04 06:44:04;;;;;;;8.53;6.77;;;26.90;74.50;;;;;;5020816;28;20463;-79
2022/08/04 06:46:31;;;;;;;10.00;7.40;;;27.00;74.30;;;;;;5028780;28;20847;-80
2022/08/04 06:48:58;;;;;;;7.27;6.57;;;27.10;73.40;;;;;;5023882;28;20481;-80
2022/08/04 06:51:24;;;;;;;10.63;6.70;;;27.20;73.10;;;;;;5027494;28;21080;-80
2022/08/04 06:53:51;;;;;;;8.40;7.10;;;27.30;73.00;;;;;;5027240;28;20500;-80
2022/08/04 06:56:18;;;;;;;7.33;6.60;;;27.40;72.70;;;;;;5026149;28;20807;-79
2022/08/04 06:58:45;;;;;;;7.03;6.33;;;27.40;72.70;;;;;;5028275;28;20471;-77
2022/08/04 07:01:18;;;;;;;12.30;7.10;;;27.50;71.90;;;;;;5027531;28;21244;-76
2022/08/04 07:03:44;;;;;;;9.53;6.20;;;27.50;71.90;;;;;;5027554;28;20458;-77
2022/08/04 07:06:10;;;;;;;9.83;7.00;;;27.50;71.00;;;;;;5027213;28;20440;-77
2022/08/04 07:08:36;;;;;;;7.10;6.50;;;27.60;70.90;;;;;;5023799;28;20180;-77
2022/08/04 07:11:02;;;;;;;9.73;5.30;;;27.60;70.80;;;;;;5029236;28;20415;-77
2022/08/04 07:13:30;;;;;;;7.10;6.37;;;27.70;70.90;;;;;;5025183;28;20250;-76
2022/08/04 07:15:58;;;;;;;6.97;6.00;;;27.60;70.40;;;;;;5030439;28;21033;-77
2022/08/04 07:18:24;;;;;;;6.27;5.67;;;27.70;70.50;;;;;;5027205;28;20431;-77
2022/08/04 07:20:50;;;;;;;5.90;5.40;;;27.80;69.80;;;;;;5021894;28;20478;-77
2022/08/04 07:23:22;;;;;;;7.00;5.37;;;27.80;68.80;;;;;;5032431;28;20682;-76
2022/08/04 07:25:56;;;;;;;5.80;5.20;;;27.80;68.20;;;;;;5023133;28;20934;-76
2022/08/04 07:28:24;;;;;;;8.67;4.83;;;27.80;68.20;;;;;;5040738;28;20415;-77
2022/08/04 07:30:52;;;;;;;5.27;4.87;;;27.90;68.00;;;;;;5028244;28;20454;-77
2022/08/04 07:33:18;;;;;;;5.93;5.33;;;28.00;67.80;;;;;;5021090;28;20643;-76
2022/08/04 07:35:53;;;;;;;5.90;5.30;;;28.00;67.70;;;;;;5023901;28;20437;-77
2022/08/04 07:38:19;;;;;;;4.77;4.40;;;28.10;67.80;;;;;;5034266;28;20784;-76
2022/08/04 07:40:46;;;;;;;7.43;4.90;;;28.10;67.50;;;;;;5025491;28;20431;-76
2022/08/04 07:43:15;;;;;;;5.77;5.00;;;28.20;67.10;;;;;;5033134;28;20203;-76
2022/08/04 07:45:41;;;;;;;6.50;5.30;;;28.30;65.50;;;;;;5023293;28;20886;-76
2022/08/04 07:48:09;;;;;;;6.43;5.07;;;28.40;65.00;;;;;;5029203;28;20450;-76
2022/08/04 07:50:34;;;;;;;5.77;5.10;;;28.40;65.00;;;;;;5027055;28;20172;-75
2022/08/04 07:53:01;;;;;;;7.17;5.13;;;28.50;64.70;;;;;;5023494;28;20940;-77
2022/08/04 07:55:28;;;;;;;5.20;4.70;;;28.50;63.80;;;;;;5032510;28;20426;-76
2022/08/04 07:57:54;;;;;;;6.00;5.07;;;28.70;63.40;;;;;;5024805;28;20501;-76
2022/08/04 08:00:20;;;;;;;5.40;4.90;;;28.70;63.60;;;;;;5026276;28;20510;-76
2022/08/04 08:02:49;;;;;;;6.47;5.90;;;28.80;63.90;;;;;;5030020;28;20211;-76
2022/08/04 08:05:18;;;;;;;5.37;4.87;;;28.80;64.40;;;;;;5026461;28;20180;-77
2022/08/04 08:07:50;;;;;;;5.57;5.03;;;28.90;62.80;;;;;;5017991;28;20436;-76
2022/08/04 08:10:17;;;;;;;5.40;4.90;;;29.00;62.60;;;;;;5024168;28;20561;-77
2022/08/04 08:12:43;;;;;;;5.77;4.73;;;29.00;62.40;;;;;;5030333;28;20450;-77
2022/08/04 08:15:13;;;;;;;5.77;4.73;;;29.10;62.20;;;;;;5018308;28;20415;-76
2022/08/04 08:17:40;;;;;;;5.90;5.30;;;29.10;61.60;;;;;;5026205;28;20443;-76
2022/08/04 08:20:07;;;;;;;5.47;4.97;;;29.30;61.20;;;;;;5029082;28;20510;-77
2022/08/04 08:22:32;;;;;;;9.03;4.83;;;29.30;61.20;;;;;;5021133;28;20455;-76
2022/08/04 08:24:58;;;;;;;5.37;4.87;;;29.30;61.00;;;;;;5025910;28;20502;-76
2022/08/04 08:27:25;;;;;;;5.70;5.20;;;29.40;60.80;;;;;;5019048;28;20197;-76
2022/08/04 08:29:51;;;;;;;5.27;4.77;;;29.50;60.20;;;;;;5028492;28;20439;-77
2022/08/04 08:32:17;;;;;;;7.03;5.70;;;29.50;60.10;;;;;;5024962;28;20432;-76
2022/08/04 08:34:44;;;;;;;5.23;4.80;;;29.50;60.30;;;;;;5028603;28;20412;-76
2022/08/04 08:37:31;;;;;;;5.30;4.80;;;29.60;59.80;;;;;;5021651;28;20796;-76
2022/08/04 08:40:20;;;;;;;4.97;4.57;;;29.70;59.60;;;;;;5023178;28;20431;-76
2022/08/04 08:43:04;;;;;;;5.33;4.93;;;29.70;59.50;;;;;;5022667;28;20586;-75
2022/08/04 08:45:51;;;;;;;6.10;4.70;;;29.70;59.70;;;;;;5024572;28;20394;-75
2022/08/04 08:48:34;;;;;;;4.90;4.40;;;29.80;59.70;;;;;;5024140;28;20431;-75
2022/08/04 08:51:05;;;;;;;5.10;4.60;;;29.90;59.90;;;;;;5025259;28;20462;-75
2022/08/04 08:54:02;;;;;;;5.10;4.70;;;30.00;59.10;;;;;;5026213;28;20504;-75
2022/08/04 08:56:38;;;;;;;5.33;4.90;;;30.00;58.90;;;;;;5019285;28;20458;-75
2022/08/04 08:59:37;;;;;;;5.20;4.80;;;30.10;59.20;;;;;;5026355;28;20394;-75
2022/08/04 09:02:37;;;;;;;4.80;4.40;;;30.20;58.50;;;;;;5018825;28;20506;-75
2022/08/04 09:05:27;;;;;;;5.70;5.20;;;30.30;58.50;;;;;;5025643;28;20432;-76
2022/08/04 09:08:14;;;;;;;5.20;4.70;;;30.30;58.40;;;;;;5020471;28;20440;-75
2022/08/04 09:10:54;;;;;;;5.37;4.87;;;30.40;58.30;;;;;;5026332;28;20430;-75
2022/08/04 09:13:40;;;;;;;5.17;4.20;;;30.40;58.20;;;;;;5023033;28;20931;-75
2022/08/04 09:16:35;;;;;;;6.83;4.60;;;30.50;57.80;;;;;;5024982;28;20442;-76
2022/08/04 09:19:44;;;;;;;5.40;4.90;;;30.60;57.50;;;;;;5023749;28;20474;-76
2022/08/04 09:22:34;;;;;;;5.30;4.50;;;30.70;57.40;;;;;;5022453;28;20434;-77
2022/08/04 09:25:12;;;;;;;5.37;4.70;;;30.80;56.90;;;;;;5025634;28;20377;-76
2022/08/04 09:27:56;;;;;;;4.80;4.30;;;30.90;56.70;;;;;;5023489;28;20509;-76
2022/08/04 09:30:46;;;;;;;5.03;4.40;;;31.00;56.60;;;;;;5026280;28;20436;-76
2022/08/04 09:33:27;;;;;;;4.90;4.50;;;31.10;56.50;;;;;;5030138;28;20438;-75
2022/08/04 09:36:28;;;;;;;4.70;4.30;;;31.10;56.20;;;;;;5023385;28;20451;-76
2022/08/04 09:39:08;;;;;;;5.00;4.60;;;31.30;56.10;;;;;;5022228;28;20556;-76
2022/08/04 09:41:58;;;;;;;4.73;4.40;;;31.40;55.80;;;;;;5061511;28;20430;-76
2022/08/04 09:45:11;;;;;;;5.20;4.40;;;31.50;55.50;;;;;;5040390;28;20436;-76
2022/08/04 09:47:49;;;;;;;5.77;4.47;;;31.50;54.70;;;;;;5024338;28;20444;-76
2022/08/04 09:50:40;;;;;;;8.23;4.23;;;31.60;54.80;;;;;;5025247;28;20478;-76
2022/08/04 09:53:35;;;;;;;4.53;4.13;;;31.60;54.90;;;;;;5021608;28;20469;-76
2022/08/04 09:56:19;;;;;;;5.10;4.60;;;31.70;54.80;;;;;;5033443;28;20817;-76
2022/08/04 09:58:57;;;;;;;4.80;4.40;;;31.80;55.00;;;;;;5027610;28;20482;-76
2022/08/04 10:01:26;;;;;;;8.50;4.57;;;31.90;55.10;;;;;;5019490;28;20401;-77
2022/08/04 10:03:57;;;;;;;4.70;4.30;;;32.00;55.20;;;;;;5025318;28;20451;-76
2022/08/04 10:06:55;;;;;;;4.67;4.17;;;32.10;55.20;;;;;;5026690;28;20928;-76
2022/08/04 10:09:48;;;;;;;5.50;4.10;;;32.20;55.00;;;;;;5032918;28;20509;-76
2022/08/04 10:12:40;;;;;;;4.80;4.40;;;32.30;54.30;;;;;;5034060;28;20408;-76
2022/08/04 10:15:15;;;;;;;4.97;4.57;;;32.30;54.60;;;;;;5035712;28;20437;-76
2022/08/04 10:17:55;;;;;;;5.10;4.60;;;32.40;54.00;;;;;;5034922;28;20433;-76
2022/08/04 10:21:15;;;;;;;4.73;4.33;;;32.40;55.20;;;;;;5036191;28;20414;-76
2022/08/04 10:23:44;;;;;;;6.27;4.53;;;32.40;55.60;;;;;;4991856;28;20471;-76
2022/08/04 10:26:21;;;;;;;4.33;3.97;;;32.40;55.70;;;;;;5021611;28;20457;-76
2022/08/04 10:29:28;;;;;;;4.90;4.50;;;32.60;55.60;;;;;;5033518;28;20398;-76
2022/08/04 10:32:05;;;;;;;4.80;4.40;;;32.60;55.20;;;;;;5027803;28;20439;-76
2022/08/04 10:34:43;;;;;;;5.30;4.60;;;32.60;55.40;;;;;;5025593;28;20408;-76
2022/08/04 10:37:27;;;;;;;5.13;4.73;;;32.70;55.40;;;;;;5032712;28;20785;-76
2022/08/04 10:43:02;;;;;;;5.63;4.67;;;32.80;55.40;;;;;;5032549;28;20824;-76
2022/08/04 10:45:44;;;;;;;4.30;3.90;;;33.00;53.50;;;;;;5027267;28;20435;-76
2022/08/04 10:48:21;;;;;;;4.60;3.90;;;33.10;53.60;;;;;;5026799;28;20427;-76
2022/08/04 10:51:02;;;;;;;8.20;4.30;;;33.10;53.40;;;;;;5036084;28;20470;-76
2022/08/04 10:53:30;;;;;;;4.20;3.90;;;33.10;53.00;;;;;;5029294;28;20961;-76
2022/08/04 10:56:04;;;;;;;8.37;3.83;;;33.10;53.20;;;;;;5032089;28;20488;-75
2022/08/04 10:58:54;;;;;;;5.33;4.40;;;33.20;53.30;;;;;;5027476;28;20448;-76
2022/08/04 11:01:37;;;;;;;8.17;4.43;;;33.20;53.10;;;;;;5026437;28;20517;-76
2022/08/04 11:04:29;;;;;;;3.57;3.37;;;33.40;52.70;;;;;;5029571;28;20471;-76
2022/08/04 11:06:57;;;;;;;6.90;3.80;;;33.40;50.60;;;;;;5025944;28;20435;-77
2022/08/04 11:09:23;;;;;;;6.43;3.80;;;33.50;50.70;;;;;;5027906;28;20483;-77
2022/08/04 11:12:14;;;;;;;5.80;4.47;;;33.60;50.00;;;;;;5030314;28;20421;-77
2022/08/04 11:15:19;;;;;;;4.10;3.80;;;33.60;50.20;;;;;;5026503;28;20188;-77
2022/08/04 11:17:52;;;;;;;4.40;4.00;;;33.70;50.60;;;;;;4989428;28;20465;-77
2022/08/04 11:20:23;;;;;;;4.00;3.70;;;33.70;50.60;;;;;;5031705;28;20485;-76
2022/08/04 11:23:14;;;;;;;4.70;3.93;;;33.70;49.70;;;;;;5036186;28;20509;-77
2022/08/04 11:25:59;;;;;;;3.97;3.50;;;33.90;49.80;;;;;;5028090;28;20415;-76
2022/08/04 11:28:28;;;;;;;6.90;4.73;;;34.00;49.60;;;;;;5009259;28;20453;-77
2022/08/04 11:31:03;;;;;;;4.90;3.80;;;34.10;48.80;;;;;;5029473;28;20459;-77
2022/08/04 11:33:47;;;;;;;4.13;3.83;;;34.20;49.00;;;;;;5031411;28;20420;-77
2022/08/04 11:36:25;;;;;;;3.80;3.50;;;34.30;48.20;;;;;;5024153;28;20455;-77
2022/08/04 11:39:07;;;;;;;4.57;3.70;;;34.40;48.00;;;;;;5024398;28;20418;-77
2022/08/04 11:42:00;;;;;;;4.20;3.80;;;34.50;47.40;;;;;;5032865;28;20397;-77
2022/08/04 11:44:35;;;;;;;4.33;3.93;;;34.60;47.60;;;;;;5027843;28;20483;-77
2022/08/04 11:47:10;;;;;;;3.97;3.60;;;34.70;46.60;;;;;;5024077;28;20407;-77
2022/08/04 11:49:51;;;;;;;3.93;3.60;;;34.90;46.60;;;;;;5027421;28;20489;-77
2022/08/04 11:52:19;;;;;;;4.30;3.90;;;34.90;44.20;;;;;;5025464;28;20418;-77
2022/08/04 11:54:46;;;;;;;6.00;3.47;;;35.10;43.40;;;;;;5027863;28;20406;-76
2022/08/04 11:57:11;;;;;;;3.80;3.20;;;35.30;44.20;;;;;;5030127;28;20445;-77
2022/08/04 11:59:40;;;;;;;4.90;4.33;;;35.50;44.60;;;;;;5022148;28;20897;-77
2022/08/04 12:02:29;;;;;;;5.47;3.60;;;35.70;44.60;;;;;;5028713;28;20843;-77
2022/08/04 12:04:57;;;;;;;9.30;4.53;;;35.90;43.60;;;;;;5031420;28;20498;-77
2022/08/04 12:07:57;;;;;;;3.70;3.40;;;36.10;43.80;;;;;;5025970;28;20903;-77
2022/08/04 12:10:35;;;;;;;3.80;3.50;;;36.30;43.70;;;;;;5024085;28;21042;-77
2022/08/04 12:13:24;;;;;;;3.87;3.57;;;36.80;42.90;;;;;;5020234;28;20891;-77
2022/08/04 12:16:28;;;;;;;3.80;3.40;;;37.50;42.60;;;;;;5024238;28;20418;-75
2022/08/04 12:19:01;;;;;;;3.60;3.30;;;38.00;42.00;;;;;;5034694;28;20489;-75
2022/08/04 12:21:38;;;;;;;3.90;3.60;;;38.60;40.50;;;;;;5028727;28;20461;-75
2022/08/04 12:24:34;;;;;;;3.40;3.10;;;39.00;39.60;;;;;;5030753;28;20561;-76
2022/08/04 12:27:28;;;;;;;3.20;2.90;;;39.10;39.40;;;;;;5028945;28;20443;-75
2022/08/04 12:29:54;;;;;;;3.07;2.60;;;39.30;37.40;;;;;;5023785;28;20479;-76
2022/08/04 12:32:33;;;;;;;3.30;3.07;;;39.30;37.50;;;;;;5031786;28;20445;-75
2022/08/04 12:35:08;;;;;;;3.07;2.87;;;39.50;36.90;;;;;;5027974;28;20415;-76
2022/08/04 12:37:43;;;;;;;3.03;2.80;;;39.70;37.20;;;;;;5026058;28;20811;-76
2022/08/04 12:40:17;;;;;;;3.20;3.00;;;39.90;37.40;;;;;;5030051;28;20426;-75
2022/08/04 12:43:28;;;;;;;3.63;3.33;;;40.10;36.20;;;;;;5028549;28;20462;-77
2022/08/04 12:45:59;;;;;;;2.90;2.70;;;39.90;36.50;;;;;;5019423;28;20452;-77
2022/08/04 12:48:27;;;;;;;3.10;2.80;;;39.80;33.70;;;;;;5024283;28;20576;-77
2022/08/04 12:50:55;;;;;;;5.00;3.10;;;39.80;34.80;;;;;;5023398;28;20522;-76
2022/08/04 12:53:28;;;;;;;3.17;2.97;;;40.00;34.60;;;;;;5019623;28;20450;-76
2022/08/04 12:55:56;;;;;;;4.67;3.30;;;40.20;34.30;;;;;;5027215;28;20517;-76
2022/08/04 12:58:24;;;;;;;3.90;3.03;;;39.90;34.30;;;;;;5024210;28;20419;-76
2022/08/04 13:01:05;;;;;;;4.10;3.40;;;39.70;34.20;;;;;;5028917;28;20446;-77
2022/08/04 13:03:38;;;;;;;3.90;3.60;;;39.80;34.60;;;;;;5029300;28;20474;-77
2022/08/04 13:06:06;;;;;;;3.30;3.10;;;40.20;35.40;;;;;;5030452;28;20442;-76
2022/08/04 13:08:37;;;;;;;3.70;3.40;;;40.30;35.20;;;;;;5023792;28;20491;-77
2022/08/04 13:11:03;;;;;;;3.37;3.10;;;40.30;35.70;;;;;;5023779;28;20415;-77
2022/08/04 13:13:34;;;;;;;3.80;3.50;;;40.40;35.90;;;;;;5018032;28;20415;-77
2022/08/04 13:16:05;;;;;;;3.27;3.07;;;40.70;35.70;;;;;;5023798;28;20558;-76
2022/08/04 13:18:44;;;;;;;3.60;3.30;;;40.90;34.90;;;;;;5025310;28;20439;-77
2022/08/04 13:21:21;;;;;;;3.60;3.30;;;41.10;35.10;;;;;;5022786;28;20570;-77
2022/08/04 13:23:51;;;;;;;3.50;3.17;;;41.50;34.00;;;;;;5023275;28;20471;-77
2022/08/04 13:26:18;;;;;;;3.00;2.80;;;41.60;33.00;;;;;;5024660;28;20531;-77
2022/08/04 13:28:47;;;;;;;3.40;3.10;;;41.40;32.80;;;;;;5022598;28;20416;-76
2022/08/04 13:31:19;;;;;;;2.70;2.50;;;41.50;32.60;;;;;;5021824;28;20928;-77
2022/08/04 13:33:48;;;;;;;2.43;2.23;;;41.60;31.10;;;;;;5024153;28;20522;-76
2022/08/04 13:36:16;;;;;;;3.40;2.70;;;41.70;29.40;;;;;;5024594;28;20448;-77
2022/08/04 13:38:54;;;;;;;2.80;2.60;;;41.90;29.50;;;;;;5030531;28;20452;-76
2022/08/04 13:41:21;;;;;;;3.13;2.60;;;42.40;29.50;;;;;;5025361;28;20426;-75